createdAt,value
2022-08-17T00:00:43.125Z,99.90
2022-08-17T00:03:10.225Z,99.90
2022-08-17T00:05:43.584Z,99.90
2022-08-17T00:08:14.717Z,99.90
2022-08-17T00:10:43.744Z,99.90
2022-08-17T00:13:19.120Z,99.90
2022-08-17T00:15:47.553Z,99.90
2022-08-17T00:19:01.093Z,99.90
2022-08-17T00:21:10.437Z,99.90
2022-08-17T00:23:47.701Z,99.90
2022-08-17T00:26:44.188Z,99.90
2022-08-17T00:29:07.635Z,99.90
2022-08-17T00:31:35.734Z,99.90
2022-08-17T00:34:04.291Z,99.90
2022-08-17T00:36:32.214Z,99.90
2022-08-17T00:39:01.559Z,99.90
2022-08-17T00:41:29.699Z,99.90
2022-08-17T00:44:01.543Z,99.90
2022-08-17T00:46:32.690Z,99.90
2022-08-17T00:49:01.476Z,99.90
2022-08-17T00:51:34.220Z,99.90
2022-08-17T00:54:08.096Z,99.90
2022-08-17T00:56:40.745Z,99.90
2022-08-17T00:59:10.643Z,99.90
2022-08-17T01:01:39.181Z,99.90
2022-08-17T01:04:08.373Z,99.90
2022-08-17T01:06:36.431Z,99.90
2022-08-17T01:09:08.630Z,99.90
2022-08-17T01:11:40.596Z,99.90
2022-08-17T01:14:09.245Z,99.90
2022-08-17T01:16:38.343Z,99.90
2022-08-17T01:19:14.536Z,99.90
2022-08-17T01:21:47.854Z,99.90
2022-08-17T01:24:18.047Z,99.90
2022-08-17T01:26:46.806Z,99.90
2022-08-17T01:29:15.373Z,99.90
2022-08-17T01:31:47.210Z,99.90
2022-08-17T01:34:17.730Z,99.90
2022-08-17T01:36:48.049Z,99.90
2022-08-17T01:39:24.515Z,99.90
2022-08-17T01:41:57.292Z,99.90
2022-08-17T01:44:27.968Z,99.90
2022-08-17T01:46:55.945Z,99.90
2022-08-17T01:49:23.857Z,99.90
2022-08-17T01:51:51.797Z,99.90
2022-08-17T01:54:22.096Z,99.90
2022-08-17T01:56:52.160Z,99.90
2022-08-17T01:59:21.031Z,99.90
2022-08-17T02:01:49.271Z,99.90
2022-08-17T02:04:17.776Z,99.90
2022-08-17T02:06:54.208Z,99.90
2022-08-17T02:09:26.205Z,99.90
2022-08-17T02:11:59.505Z,99.90
2022-08-17T02:14:28.013Z,99.90
2022-08-17T02:16:56.093Z,99.90
2022-08-17T02:19:24.095Z,99.90
2022-08-17T02:21:53.987Z,99.90
2022-08-17T02:25:00.857Z,99.90
2022-08-17T02:27:14.861Z,99.90
2022-08-17T02:29:42.787Z,99.90
2022-08-17T02:32:22.271Z,99.90
2022-08-17T02:34:56.716Z,99.90
2022-08-17T02:37:25.033Z,99.90
2022-08-17T02:39:54.574Z,99.90
2022-08-17T02:42:28.532Z,99.90
2022-08-17T02:44:56.545Z,99.90
2022-08-17T02:47:25.556Z,99.90
2022-08-17T02:49:56.012Z,99.90
2022-08-17T02:52:53.402Z,99.90
2022-08-17T02:55:18.780Z,99.90
2022-08-17T02:57:46.711Z,99.90
2022-08-17T03:00:18.020Z,99.90
2022-08-17T03:02:46.773Z,99.90
2022-08-17T03:05:18.509Z,99.90
2022-08-17T03:07:47.260Z,99.90
2022-08-17T03:10:17.094Z,99.90
2022-08-17T03:12:46.498Z,99.90
2022-08-17T03:15:17.479Z,99.90
2022-08-17T03:17:46.229Z,99.90
2022-08-17T03:20:16.085Z,99.90
2022-08-17T03:22:48.074Z,99.90
2022-08-17T03:25:25.677Z,99.90
2022-08-17T03:27:53.802Z,99.90
2022-08-17T03:30:22.524Z,99.90
2022-08-17T03:32:54.703Z,99.90
2022-08-17T03:35:24.699Z,99.90
2022-08-17T03:38:00.062Z,99.90
2022-08-17T03:40:55.241Z,99.90
2022-08-17T03:43:21.800Z,99.90
2022-08-17T03:46:10.765Z,99.90
2022-08-17T03:49:13.140Z,99.90
2022-08-17T03:51:58.859Z,99.90
2022-08-17T03:54:44.530Z,99.90
2022-08-17T03:57:14.094Z,99.90
2022-08-17T03:59:42.460Z,99.90
2022-08-17T04:02:15.569Z,99.90
2022-08-17T04:04:43.461Z,99.90
2022-08-17T04:07:11.526Z,99.90
2022-08-17T04:09:39.453Z,99.90
2022-08-17T04:12:07.572Z,99.90
2022-08-17T04:14:52.312Z,99.90
2022-08-17T04:17:24.169Z,99.90
2022-08-17T04:19:52.229Z,99.90
2022-08-17T04:22:31.730Z,99.90
2022-08-17T04:25:02.973Z,99.90
2022-08-17T04:27:30.877Z,99.90
2022-08-17T04:30:00.117Z,99.90
2022-08-17T04:33:00.497Z,99.90
2022-08-17T04:35:19.923Z,99.90
2022-08-17T04:37:47.910Z,99.90
2022-08-17T04:40:33.814Z,99.90
2022-08-17T04:43:03.605Z,99.90
2022-08-17T04:45:33.081Z,99.90
2022-08-17T04:48:01.584Z,99.90
2022-08-17T04:50:29.525Z,99.90
2022-08-17T04:52:57.794Z,99.90
2022-08-17T04:55:25.875Z,99.90
2022-08-17T04:57:54.048Z,99.90
2022-08-17T05:00:22.231Z,99.90
2022-08-17T05:02:52.499Z,99.90
2022-08-17T05:05:21.588Z,99.90
2022-08-17T05:07:49.513Z,99.90
2022-08-17T05:10:17.802Z,99.90
2022-08-17T05:12:45.657Z,99.90
2022-08-17T05:15:16.080Z,99.90
2022-08-17T05:17:44.394Z,99.90
2022-08-17T05:20:13.685Z,99.90
2022-08-17T05:22:51.145Z,99.90
2022-08-17T05:25:21.125Z,99.90
2022-08-17T05:27:54.146Z,99.90
2022-08-17T05:30:22.648Z,99.90
2022-08-17T05:32:55.596Z,99.90
2022-08-17T05:35:26.624Z,99.90
2022-08-17T05:37:54.792Z,99.90
2022-08-17T05:40:25.968Z,99.90
2022-08-17T05:43:04.672Z,99.90
2022-08-17T05:45:54.625Z,99.90
2022-08-17T05:48:21.161Z,98.00
2022-08-17T05:51:24.847Z,96.60
2022-08-17T05:54:03.496Z,95.20
2022-08-17T05:56:48.006Z,93.60
2022-08-17T05:59:24.920Z,92.40
2022-08-17T06:02:02.984Z,93.20
2022-08-17T06:04:42.138Z,92.60
2022-08-17T06:07:20.834Z,91.70
2022-08-17T06:09:54.757Z,89.60
2022-08-17T06:12:37.688Z,85.70
2022-08-17T06:15:19.437Z,81.60
2022-08-17T06:17:47.734Z,78.30
2022-08-17T06:20:17.111Z,75.20
2022-08-17T06:22:52.828Z,71.00
2022-08-17T06:25:27.233Z,67.70
2022-08-17T06:27:58.473Z,65.90
2022-08-17T06:30:29.033Z,63.70
2022-08-17T06:33:22.447Z,63.30
2022-08-17T06:36:03.083Z,61.40
2022-08-17T06:38:48.320Z,58.20
2022-08-17T06:41:22.043Z,57.80
2022-08-17T06:44:07.312Z,57.20
2022-08-17T06:46:38.562Z,55.60
2022-08-17T06:49:16.936Z,55.30
2022-08-17T06:51:50.511Z,53.40
2022-08-17T06:54:27.370Z,52.80
2022-08-17T06:57:02.176Z,52.40
2022-08-17T06:59:54.218Z,50.90
2022-08-17T07:02:52.769Z,49.80
2022-08-17T07:05:21.598Z,48.00
2022-08-17T07:08:04.911Z,48.90
2022-08-17T07:10:40.146Z,46.40
2022-08-17T07:13:25.535Z,46.20
2022-08-17T07:15:59.860Z,45.40
2022-08-17T07:18:32.971Z,43.70
2022-08-17T07:21:11.940Z,43.90
2022-08-17T07:23:56.566Z,43.30
2022-08-17T07:26:25.843Z,42.40
2022-08-17T07:28:56.128Z,41.80
2022-08-17T07:31:27.062Z,41.40
2022-08-17T07:34:06.663Z,41.20
2022-08-17T07:36:34.768Z,41.10
2022-08-17T07:39:05.130Z,41.00
2022-08-17T07:41:57.519Z,41.30
2022-08-17T07:44:27.678Z,41.10
2022-08-17T07:47:14.017Z,39.70
2022-08-17T07:49:44.618Z,39.40
2022-08-17T07:52:51.853Z,39.00
2022-08-17T07:55:27.876Z,38.30
2022-08-17T07:57:58.841Z,38.80
2022-08-17T08:00:32.640Z,38.00
2022-08-17T08:03:27.183Z,38.20
2022-08-17T08:06:00.196Z,37.00
2022-08-17T08:08:33.267Z,36.50
2022-08-17T08:11:08.393Z,36.40
2022-08-17T08:13:42.792Z,35.80
2022-08-17T08:16:21.485Z,36.60
2022-08-17T08:18:55.429Z,35.70
2022-08-17T08:21:34.163Z,35.50
2022-08-17T08:24:19.690Z,35.10
2022-08-17T08:26:55.468Z,34.70
2022-08-17T08:29:32.334Z,34.60
2022-08-17T08:32:10.388Z,34.20
2022-08-17T08:35:02.006Z,34.70
2022-08-17T08:37:42.910Z,34.00
2022-08-17T08:40:24.792Z,33.50
2022-08-17T08:43:04.148Z,33.70
2022-08-17T08:45:45.283Z,33.90
2022-08-17T08:48:55.909Z,33.70
2022-08-17T08:51:27.787Z,34.40
2022-08-17T08:54:03.291Z,34.30
2022-08-17T08:56:38.257Z,33.50
2022-08-17T08:59:20.595Z,33.30
2022-08-17T09:02:02.030Z,33.00
2022-08-17T09:05:12.749Z,32.50
2022-08-17T09:07:44.343Z,33.50
2022-08-17T09:10:24.600Z,32.40
2022-08-17T09:13:10.198Z,32.30
2022-08-17T09:15:43.453Z,33.70
2022-08-17T09:19:02.934Z,33.60
2022-08-17T09:21:12.258Z,32.80
2022-08-17T09:23:45.742Z,32.30
2022-08-17T09:26:21.064Z,31.60
2022-08-17T09:28:52.667Z,32.20
2022-08-17T09:31:24.044Z,32.60
2022-08-17T09:33:55.466Z,30.40
2022-08-17T09:36:29.232Z,30.90
2022-08-17T09:39:02.269Z,30.20
2022-08-17T09:41:39.132Z,30.20
2022-08-17T09:44:24.384Z,30.20
2022-08-17T09:46:56.833Z,31.30
2022-08-17T09:49:31.399Z,31.80
2022-08-17T09:52:06.616Z,30.70
2022-08-17T09:54:40.161Z,31.20
2022-08-17T09:57:31.651Z,30.80
2022-08-17T10:00:16.349Z,31.00
2022-08-17T10:03:10.476Z,31.90
2022-08-17T10:05:46.314Z,31.20
2022-08-17T10:08:24.096Z,31.80
2022-08-17T10:11:12.433Z,31.50
2022-08-17T10:13:53.211Z,31.40
2022-08-17T10:16:28.239Z,31.10
2022-08-17T10:19:11.334Z,32.70
2022-08-17T10:22:32.585Z,32.10
2022-08-17T10:25:22.501Z,32.10
2022-08-17T10:27:55.945Z,30.50
2022-08-17T10:30:29.188Z,30.20
2022-08-17T10:33:00.635Z,30.40
2022-08-17T10:35:34.189Z,30.00
2022-08-17T10:38:41.164Z,29.70
2022-08-17T10:41:25.061Z,29.40
2022-08-17T10:44:37.483Z,29.00
2022-08-17T10:47:04.638Z,29.60
2022-08-17T10:49:34.896Z,31.50
2022-08-17T10:52:08.063Z,31.60
2022-08-17T10:54:47.320Z,33.80
2022-08-17T10:57:37.005Z,34.60
2022-08-17T11:00:14.658Z,34.70
2022-08-17T11:02:49.285Z,35.70
2022-08-17T11:05:45.710Z,35.90
2022-08-17T11:08:46.353Z,33.90
2022-08-17T11:11:36.142Z,32.90
2022-08-17T11:14:21.345Z,32.60
2022-08-17T11:17:06.055Z,33.10
2022-08-17T11:20:12.795Z,33.30
2022-08-17T11:23:10.142Z,34.00
2022-08-17T11:25:41.014Z,33.60
2022-08-17T11:28:18.517Z,34.30
2022-08-17T11:30:53.553Z,34.20
2022-08-17T11:33:53.995Z,34.70
2022-08-17T11:36:53.629Z,34.50
2022-08-17T11:39:55.158Z,35.70
2022-08-17T11:42:34.714Z,36.80
2022-08-17T11:45:32.434Z,35.90
2022-08-17T11:48:30.926Z,34.10
2022-08-17T11:51:24.291Z,33.40
2022-08-17T11:54:32.126Z,35.50
2022-08-17T11:57:02.238Z,36.20
2022-08-17T11:59:56.010Z,36.50
2022-08-17T12:02:47.481Z,36.00
2022-08-17T12:05:34.117Z,36.70
2022-08-17T12:08:23.585Z,38.10
2022-08-17T12:11:07.408Z,38.80
2022-08-17T12:13:47.274Z,39.40
2022-08-17T12:16:16.597Z,41.20
2022-08-17T12:18:53.518Z,41.40
2022-08-17T12:21:29.964Z,41.40
2022-08-17T12:24:06.638Z,42.00
2022-08-17T12:26:36.945Z,41.40
2022-08-17T12:29:09.390Z,42.20
2022-08-17T12:31:48.518Z,42.90
2022-08-17T12:34:21.133Z,43.20
2022-08-17T12:36:50.916Z,44.00
2022-08-17T12:39:21.876Z,41.50
2022-08-17T12:42:01.992Z,42.10
2022-08-17T12:44:32.792Z,42.30
2022-08-17T12:47:07.572Z,43.10
2022-08-17T12:49:38.641Z,43.10
2022-08-17T12:52:14.404Z,43.20
2022-08-17T12:54:49.138Z,43.60
2022-08-17T12:57:21.262Z,43.30
2022-08-17T12:59:52.989Z,43.20
2022-08-17T13:02:28.309Z,43.50
2022-08-17T13:04:59.643Z,43.70
2022-08-17T13:07:35.034Z,42.90
2022-08-17T13:10:03.896Z,43.00
2022-08-17T13:12:34.901Z,42.60
2022-08-17T13:15:03.457Z,42.10
2022-08-17T13:17:36.788Z,41.50
2022-08-17T13:20:14.664Z,42.70
2022-08-17T13:22:45.254Z,42.80
2022-08-17T13:25:17.433Z,41.90
2022-08-17T13:27:47.089Z,42.10
2022-08-17T13:30:23.785Z,42.00
2022-08-17T13:32:53.776Z,42.80
2022-08-17T13:35:38.986Z,43.10
2022-08-17T13:38:10.794Z,42.80
2022-08-17T13:40:51.922Z,43.30
2022-08-17T13:43:45.560Z,42.80
2022-08-17T13:46:20.237Z,43.20
2022-08-17T13:48:59.364Z,43.40
2022-08-17T13:51:32.438Z,43.90
2022-08-17T13:54:25.086Z,44.60
2022-08-17T13:57:00.440Z,43.90
2022-08-17T13:59:54.767Z,43.00
2022-08-17T14:02:28.635Z,42.10
2022-08-17T14:04:57.774Z,42.20
2022-08-17T14:07:36.704Z,42.00
2022-08-17T14:10:10.692Z,42.50
2022-08-17T14:12:40.854Z,43.50
2022-08-17T14:15:11.198Z,43.80
2022-08-17T14:17:39.598Z,43.40
2022-08-17T14:20:10.706Z,44.30
2022-08-17T14:22:44.088Z,43.70
2022-08-17T14:25:15.110Z,44.20
2022-08-17T14:27:52.373Z,43.70
2022-08-17T14:30:23.770Z,43.60
2022-08-17T14:32:52.681Z,44.20
2022-08-17T14:35:23.189Z,43.30
2022-08-17T14:37:53.343Z,44.10
2022-08-17T14:40:24.793Z,44.20
2022-08-17T14:42:55.126Z,43.80
2022-08-17T14:45:30.421Z,43.60
2022-08-17T14:48:00.581Z,43.30
2022-08-17T14:50:28.481Z,42.50
2022-08-17T14:52:57.924Z,43.00
2022-08-17T14:55:26.247Z,44.30
2022-08-17T14:57:54.213Z,43.80
2022-08-17T15:00:23.831Z,44.00
2022-08-17T15:02:54.608Z,44.00
2022-08-17T15:05:24.505Z,44.50
2022-08-17T15:07:53.721Z,45.10
2022-08-17T15:10:25.803Z,44.70
2022-08-17T15:12:54.056Z,44.60
2022-08-17T15:15:22.107Z,44.80
2022-08-17T15:17:51.674Z,43.60
2022-08-17T15:20:28.245Z,44.90
2022-08-17T15:22:57.501Z,45.90
2022-08-17T15:25:28.504Z,46.20
2022-08-17T15:27:56.763Z,46.10
2022-08-17T15:30:26.551Z,46.30
2022-08-17T15:32:55.781Z,46.90
2022-08-17T15:35:27.191Z,46.60
2022-08-17T15:37:58.349Z,47.30
2022-08-17T15:40:28.278Z,47.10
2022-08-17T15:42:57.685Z,47.30
2022-08-17T15:45:28.317Z,47.20
2022-08-17T15:47:56.206Z,47.50
2022-08-17T15:50:24.100Z,47.60
2022-08-17T15:53:00.967Z,46.50
2022-08-17T15:55:32.643Z,46.90
2022-08-17T15:58:00.733Z,46.90
2022-08-17T16:00:29.389Z,46.90
2022-08-17T16:03:44.795Z,46.90
2022-08-17T16:05:47.891Z,46.70
2022-08-17T16:08:20.623Z,46.20
2022-08-17T16:10:50.579Z,47.00
2022-08-17T16:13:19.248Z,46.90
2022-08-17T16:15:56.586Z,47.50
2022-08-17T16:18:26.368Z,47.30
2022-08-17T16:20:54.929Z,46.90
2022-08-17T16:23:23.087Z,47.30
2022-08-17T16:25:54.246Z,47.10
2022-08-17T16:28:36.018Z,47.20
2022-08-17T16:31:05.836Z,47.50
2022-08-17T16:33:37.533Z,47.90
2022-08-17T16:36:07.162Z,48.20
2022-08-17T16:38:36.109Z,48.50
2022-08-17T16:41:06.900Z,48.80
2022-08-17T16:43:35.513Z,49.40
2022-08-17T16:46:03.801Z,49.30
2022-08-17T16:48:32.109Z,49.10
2022-08-17T16:51:04.012Z,49.10
2022-08-17T16:53:32.979Z,49.20
2022-08-17T16:56:00.858Z,49.60
2022-08-17T16:58:30.086Z,49.50
2022-08-17T17:00:59.740Z,50.00
2022-08-17T17:03:30.093Z,50.10
2022-08-17T17:06:08.671Z,50.30
2022-08-17T17:08:43.741Z,50.60
2022-08-17T17:11:15.255Z,50.80
2022-08-17T17:13:52.762Z,50.90
2022-08-17T17:16:27.298Z,51.10
2022-08-17T17:19:04.663Z,51.30
2022-08-17T17:21:42.417Z,51.30
2022-08-17T17:24:15.996Z,51.80
2022-08-17T17:27:07.319Z,51.20
2022-08-17T17:29:48.228Z,51.70
2022-08-17T17:32:22.429Z,52.10
2022-08-17T17:34:55.549Z,52.30
2022-08-17T17:37:32.546Z,52.30
2022-08-17T17:40:05.002Z,52.10
2022-08-17T17:42:33.918Z,52.30
2022-08-17T17:45:08.536Z,52.20
2022-08-17T17:47:37.291Z,52.20
2022-08-17T17:50:07.380Z,52.40
2022-08-17T17:52:47.363Z,52.60
2022-08-17T17:55:30.620Z,52.70
2022-08-17T17:58:06.359Z,53.00
2022-08-17T18:00:40.179Z,53.30
2022-08-17T18:03:26.743Z,54.10
2022-08-17T18:06:15.132Z,54.10
2022-08-17T18:09:08.742Z,54.60
2022-08-17T18:12:14.152Z,54.70
2022-08-17T18:14:47.808Z,55.00
2022-08-17T18:17:17.972Z,55.10
2022-08-17T18:19:48.235Z,55.30
2022-08-17T18:22:18.615Z,55.70
2022-08-17T18:24:48.915Z,56.00
2022-08-17T18:27:23.922Z,56.20
2022-08-17T18:29:53.186Z,56.50
2022-08-17T18:32:34.382Z,56.40
2022-08-17T18:35:27.928Z,56.50
2022-08-17T18:37:57.555Z,56.60
2022-08-17T18:40:32.594Z,57.20
2022-08-17T18:43:06.057Z,57.20
2022-08-17T18:45:38.357Z,57.30
2022-08-17T18:48:20.799Z,57.60
2022-08-17T18:50:49.167Z,57.90
2022-08-17T18:53:33.574Z,58.10
2022-08-17T18:56:30.732Z,58.20
2022-08-17T18:59:09.667Z,58.40
2022-08-17T19:01:53.724Z,58.80
2022-08-17T19:04:35.682Z,58.80
2022-08-17T19:07:11.735Z,59.30
2022-08-17T19:09:44.702Z,59.50
2022-08-17T19:12:27.217Z,59.70
2022-08-17T19:14:56.933Z,59.60
2022-08-17T19:17:30.346Z,59.80
2022-08-17T19:20:05.849Z,60.10
2022-08-17T19:22:45.525Z,60.20
2022-08-17T19:25:16.899Z,60.00
2022-08-17T19:27:51.454Z,59.90
2022-08-17T19:30:26.138Z,59.50
2022-08-17T19:32:55.899Z,59.90
2022-08-17T19:35:28.148Z,59.80
2022-08-17T19:38:04.028Z,59.70
2022-08-17T19:40:52.846Z,60.30
2022-08-17T19:43:30.503Z,60.90
2022-08-17T19:46:05.858Z,62.20
2022-08-17T19:48:47.154Z,62.10
2022-08-17T19:51:25.708Z,61.80
2022-08-17T19:54:05.985Z,61.80
2022-08-17T19:56:44.102Z,64.00
2022-08-17T19:59:21.139Z,63.30
2022-08-17T20:01:53.919Z,63.30
2022-08-17T20:04:33.740Z,63.60
2022-08-17T20:07:06.731Z,63.50
2022-08-17T20:09:38.462Z,63.70
2022-08-17T20:12:10.781Z,64.00
2022-08-17T20:14:55.223Z,64.80
2022-08-17T20:17:25.648Z,66.20
2022-08-17T20:20:02.561Z,65.50
2022-08-17T20:22:49.771Z,65.70
2022-08-17T20:25:30.174Z,65.90
2022-08-17T20:28:06.416Z,66.80
2022-08-17T20:30:38.674Z,66.40
2022-08-17T20:33:12.486Z,66.90
2022-08-17T20:36:00.083Z,67.60
2022-08-17T20:38:41.839Z,67.50
2022-08-17T20:41:16.334Z,67.60
2022-08-17T20:43:52.090Z,67.50
2022-08-17T20:46:42.510Z,67.90
2022-08-17T20:49:27.913Z,67.80
2022-08-17T20:52:02.442Z,67.50
2022-08-17T20:54:48.226Z,67.50
2022-08-17T20:57:48.946Z,67.80
2022-08-17T21:00:41.402Z,67.90
2022-08-17T21:03:49.113Z,68.00
2022-08-17T21:06:23.150Z,68.10
2022-08-17T21:08:54.694Z,68.10
2022-08-17T21:12:03.168Z,68.00
2022-08-17T21:14:44.356Z,68.50
2022-08-17T21:17:48.409Z,68.90
2022-08-17T21:20:32.149Z,69.30
2022-08-17T21:23:27.378Z,68.80
2022-08-17T21:26:26.716Z,69.10
2022-08-17T21:29:31.489Z,70.30
2022-08-17T21:32:24.529Z,71.50
2022-08-17T21:35:30.358Z,72.30
2022-08-17T21:38:05.003Z,72.80
2022-08-17T21:40:35.107Z,73.60
2022-08-17T21:43:17.854Z,73.40
2022-08-17T21:45:56.602Z,74.60
2022-08-17T21:48:27.026Z,75.10
2022-08-17T21:51:03.517Z,72.80
2022-08-17T21:53:39.080Z,73.20
2022-08-17T21:56:07.958Z,74.20
2022-08-17T21:58:39.938Z,74.00
2022-08-17T22:01:31.428Z,72.60
2022-08-17T22:04:03.337Z,73.10
2022-08-17T22:06:36.618Z,73.30
2022-08-17T22:09:13.541Z,74.10
2022-08-17T22:12:12.609Z,75.40
2022-08-17T22:14:52.375Z,78.90
2022-08-17T22:17:26.271Z,93.90
2022-08-17T22:19:57.387Z,99.90
2022-08-17T22:22:56.278Z,99.90
2022-08-17T22:25:25.749Z,99.90
2022-08-17T22:27:56.630Z,99.90
2022-08-17T22:30:32.760Z,99.90
2022-08-17T22:33:23.007Z,99.90
2022-08-17T22:36:08.545Z,99.90
2022-08-17T22:38:36.434Z,99.90
2022-08-17T22:41:42.205Z,99.90
2022-08-17T22:44:35.236Z,99.90
2022-08-17T22:47:11.549Z,99.90
2022-08-17T22:49:53.584Z,99.90
2022-08-17T22:52:32.915Z,99.90
2022-08-17T22:55:30.440Z,99.90
2022-08-17T22:58:16.761Z,99.90
2022-08-17T23:00:47.153Z,99.90
2022-08-17T23:03:18.618Z,99.90
2022-08-17T23:05:49.549Z,99.90
2022-08-17T23:08:21.285Z,99.90
2022-08-17T23:10:50.301Z,99.90
2022-08-17T23:13:18.270Z,99.90
2022-08-17T23:15:48.148Z,99.90
2022-08-17T23:18:17.741Z,99.90
2022-08-17T23:20:47.498Z,99.90
2022-08-17T23:23:16.803Z,99.90
2022-08-17T23:25:47.262Z,99.90
2022-08-17T23:28:15.296Z,99.90
2022-08-17T23:30:46.567Z,99.90
2022-08-17T23:33:21.070Z,99.90
2022-08-17T23:35:50.301Z,99.90
2022-08-17T23:38:18.178Z,99.90
2022-08-17T23:40:46.175Z,99.90
2022-08-17T23:43:24.276Z,99.90
2022-08-17T23:45:54.314Z,99.90
2022-08-17T23:48:32.573Z,99.90
2022-08-17T23:51:09.401Z,99.90
2022-08-17T23:53:41.354Z,99.90
2022-08-17T23:56:11.137Z,99.90
2022-08-17T23:58:42.147Z,99.90
